Flight Briefing for CPX661

Departure Arrival
Tampa International Airport (KTPA)
Click to view FAA NOTAMS
Miami International Airport (KMIA)
Click to view FAA NOTAMS
Departure Time Arrival Time
N/A N/A
Aircraft Distance
SF340AF 177nm
Departure METAR Arrival METAR
KTPA 221153Z 00000KT 10SM CLR 14/08 A3009 RMK AO2 SLP188 T01390083 10150 20128 53010 KMIA 221153Z 32006KT 10SM CLR 16/12 A3007 RMK AO2 SLP184 T01560117 10172 20150 53016
Suggested Route
GANDY8 SABEE CYY CYY9


View recent IFR Routes data
Notes



Charts and Procedures

Charts for KTPA
No chart available
Charts for KMIA
No chart available

Windy.com Weather Map